AAL2102 KDFW-KPNS
Flight info
| Callsign | AAL2102 |
|---|---|
| Flight time | N/A |
| Altitude | 37000 |
| Route | MRSSH3 ZALEA MCB LOXLY V241 PENSI |
| Aircraft | A319/M-SDE3FGHIRWY/LB1 |
Departure
| Time | 2026-04-30 14:12 |
|---|---|
| Airport | Dallas Fort Worth International Airport (KDFW) |
Arrival
| Time | N/A |
|---|---|
| Airport | Pensacola International Airport (KPNS) |
| Time | Latitude | Longitude | Altitude | Speed | Heading |
|---|---|---|---|---|---|
| 2026-04-30 13:19 | 32.90389 | -97.03518 | 616 ft | 0 kts | 309° |
| 2026-04-30 13:25 | 32.90389 | -97.03517 | 616 ft | 0 kts | 309° |
| 2026-04-30 14:01 | 32.90379 | -97.03503 | 616 ft | 4 kts | 310° |
| 2026-04-30 14:01 | 32.90362 | -97.03479 | 616 ft | 4 kts | 308° |
| 2026-04-30 14:02 | 32.90347 | -97.03453 | 616 ft | 4 kts | 295° |
| 2026-04-30 14:02 | 32.90340 | -97.03423 | 616 ft | 4 kts | 249° |
| 2026-04-30 14:02 | 32.90343 | -97.03416 | 616 ft | 1 kts | 236° |
| 2026-04-30 14:04 | 32.90335 | -97.03430 | 616 ft | 5 kts | 236° |
| 2026-04-30 14:05 | 32.90299 | -97.03470 | 623 ft | 9 kts | 209° |
| 2026-04-30 14:05 | 32.90227 | -97.03511 | 623 ft | 13 kts | 205° |
| 2026-04-30 14:05 | 32.90135 | -97.03552 | 625 ft | 17 kts | 192° |
| 2026-04-30 14:05 | 32.90025 | -97.03555 | 622 ft | 17 kts | 150° |
| 2026-04-30 14:06 | 32.89930 | -97.03469 | 625 ft | 18 kts | 142° |
| 2026-04-30 14:06 | 32.89760 | -97.03379 | 623 ft | 9 kts | 108° |
| 2026-04-30 14:07 | 32.89752 | -97.03237 | 616 ft | 1 kts | 91° |
| 2026-04-30 14:07 | 32.89744 | -97.03206 | 626 ft | 7 kts | 131° |
| 2026-04-30 14:07 | 32.89668 | -97.03195 | 618 ft | 14 kts | 180° |
| 2026-04-30 14:08 | 32.89390 | -97.03197 | 616 ft | 26 kts | 180° |
| 2026-04-30 14:08 | 32.89226 | -97.03198 | 621 ft | 24 kts | 180° |
| 2026-04-30 14:08 | 32.88904 | -97.03200 | 616 ft | 23 kts | 180° |
| 2026-04-30 14:09 | 32.88733 | -97.03200 | 628 ft | 19 kts | 181° |
| 2026-04-30 14:09 | 32.88595 | -97.03200 | 626 ft | 22 kts | 180° |
| 2026-04-30 14:09 | 32.88295 | -97.03201 | 626 ft | 21 kts | 180° |
| 2026-04-30 14:10 | 32.88149 | -97.03203 | 616 ft | 21 kts | 180° |
| 2026-04-30 14:10 | 32.88020 | -97.03204 | 626 ft | 14 kts | 177° |
| 2026-04-30 14:10 | 32.87973 | -97.03142 | 616 ft | 0 kts | 92° |
| 2026-04-30 14:10 | 32.87972 | -97.03125 | 616 ft | 5 kts | 92° |
| 2026-04-30 14:11 | 32.87971 | -97.03063 | 616 ft | 11 kts | 90° |
| 2026-04-30 14:11 | 32.87998 | -97.03008 | 628 ft | 7 kts | 2° |
| 2026-04-30 14:11 | 32.88010 | -97.03008 | 616 ft | 0 kts | 360° |
| 2026-04-30 14:11 | 32.88190 | -97.03008 | 620 ft | 63 kts | 0° |
| 2026-04-30 14:12 | 32.88860 | -97.03006 | 621 ft | 127 kts | 0° |
| 2026-04-30 14:12 | 32.89919 | -97.02995 | 748 ft | 166 kts | 2° |
| 2026-04-30 14:12 | 32.91076 | -97.03020 | 1434 ft | 166 kts | 1° |
| 2026-04-30 14:12 | 32.92225 | -97.02956 | 2152 ft | 165 kts | 15° |
| 2026-04-30 14:13 | 32.93369 | -97.02598 | 2682 ft | 179 kts | 19° |
| 2026-04-30 14:13 | 32.94638 | -97.02176 | 3069 ft | 200 kts | 20° |
| 2026-04-30 14:13 | 32.96065 | -97.01700 | 3506 ft | 226 kts | 20° |
| 2026-04-30 14:13 | 32.97642 | -97.01174 | 4109 ft | 248 kts | 19° |
| 2026-04-30 14:14 | 32.99314 | -97.00548 | 4960 ft | 257 kts | 27° |
| 2026-04-30 14:14 | 33.00744 | -96.99249 | 5841 ft | 262 kts | 51° |
| 2026-04-30 14:14 | 33.01577 | -96.97299 | 6745 ft | 270 kts | 77° |
| 2026-04-30 14:14 | 33.01646 | -96.95050 | 7658 ft | 277 kts | 96° |
| 2026-04-30 14:15 | 33.01437 | -96.92748 | 8552 ft | 283 kts | 96° |
| 2026-04-30 14:15 | 33.01228 | -96.90389 | 9407 ft | 290 kts | 95° |
| 2026-04-30 14:15 | 33.00977 | -96.88016 | 10231 ft | 296 kts | 100° |
| 2026-04-30 14:15 | 33.00347 | -96.85581 | 10622 ft | 321 kts | 112° |
| 2026-04-30 14:16 | 32.99178 | -96.83193 | 10906 ft | 347 kts | 124° |
| 2026-04-30 14:16 | 32.97736 | -96.80774 | 11219 ft | 367 kts | 126° |
| 2026-04-30 14:16 | 32.96241 | -96.78258 | 11830 ft | 376 kts | 127° |
| 2026-04-30 14:16 | 32.94720 | -96.75689 | 12489 ft | 384 kts | 127° |
| 2026-04-30 14:17 | 32.93172 | -96.73063 | 13133 ft | 391 kts | 127° |
| 2026-04-30 14:17 | 32.91605 | -96.70397 | 13817 ft | 396 kts | 127° |
| 2026-04-30 14:17 | 32.90017 | -96.67693 | 14498 ft | 401 kts | 128° |
| 2026-04-30 14:17 | 32.88431 | -96.64997 | 15171 ft | 406 kts | 128° |
| 2026-04-30 14:18 | 32.86800 | -96.62230 | 15811 ft | 411 kts | 128° |
| 2026-04-30 14:18 | 32.85148 | -96.59433 | 16447 ft | 415 kts | 128° |
| 2026-04-30 14:18 | 32.81784 | -96.53753 | 17715 ft | 424 kts | 129° |
| 2026-04-30 14:19 | 32.78354 | -96.47963 | 18930 ft | 434 kts | 129° |
| 2026-04-30 14:19 | 32.76600 | -96.45011 | 19516 ft | 439 kts | 129° |
| 2026-04-30 14:19 | 32.74850 | -96.42071 | 20072 ft | 444 kts | 129° |
| 2026-04-30 14:20 | 32.73056 | -96.39058 | 20641 ft | 449 kts | 130° |
| 2026-04-30 14:20 | 32.71389 | -96.35890 | 21184 ft | 458 kts | 121° |
| 2026-04-30 14:20 | 32.69404 | -96.28597 | 22176 ft | 474 kts | 99° |
| 2026-04-30 14:21 | 32.69113 | -96.24677 | 22650 ft | 479 kts | 95° |
| 2026-04-30 14:21 | 32.68868 | -96.20718 | 23096 ft | 483 kts | 95° |
| 2026-04-30 14:21 | 32.68332 | -96.12694 | 23947 ft | 492 kts | 96° |
| 2026-04-30 14:22 | 32.68055 | -96.08690 | 24350 ft | 496 kts | 96° |
| 2026-04-30 14:22 | 32.67488 | -96.00459 | 25133 ft | 504 kts | 96° |
| 2026-04-30 14:22 | 32.67203 | -95.96291 | 25517 ft | 508 kts | 95° |
| 2026-04-30 14:23 | 32.66627 | -95.87873 | 26268 ft | 516 kts | 95° |
| 2026-04-30 14:23 | 32.66030 | -95.79325 | 26948 ft | 524 kts | 95° |
| 2026-04-30 14:24 | 32.65427 | -95.70694 | 27618 ft | 533 kts | 95° |
| 2026-04-30 14:24 | 32.65117 | -95.66299 | 27955 ft | 536 kts | 95° |
| 2026-04-30 14:25 | 32.64492 | -95.57425 | 28599 ft | 543 kts | 95° |
| 2026-04-30 14:25 | 32.63851 | -95.48438 | 29187 ft | 550 kts | 95° |
| 2026-04-30 14:26 | 32.63194 | -95.39339 | 29752 ft | 557 kts | 95° |
| 2026-04-30 14:26 | 32.62864 | -95.34810 | 30035 ft | 560 kts | 95° |
| 2026-04-30 14:26 | 32.62182 | -95.25580 | 30720 ft | 562 kts | 95° |
| 2026-04-30 14:27 | 32.61838 | -95.20968 | 31127 ft | 561 kts | 95° |
| 2026-04-30 14:27 | 32.61495 | -95.16361 | 31531 ft | 560 kts | 95° |
| 2026-04-30 14:27 | 32.61152 | -95.11760 | 31924 ft | 560 kts | 94° |
| 2026-04-30 14:28 | 32.60471 | -95.02623 | 32738 ft | 560 kts | 94° |
| 2026-04-30 14:28 | 32.60123 | -94.98027 | 33140 ft | 559 kts | 94° |
| 2026-04-30 14:28 | 32.59771 | -94.93438 | 33537 ft | 559 kts | 94° |
| 2026-04-30 14:28 | 32.59414 | -94.88852 | 33946 ft | 558 kts | 94° |
| 2026-04-30 14:29 | 32.58660 | -94.79702 | 34767 ft | 558 kts | 97° |
| 2026-04-30 14:29 | 32.57094 | -94.72300 | 35413 ft | 556 kts | 110° |
| 2026-04-30 14:30 | 32.53174 | -94.58459 | 36549 ft | 555 kts | 110° |
| 2026-04-30 14:31 | 32.50732 | -94.49790 | 37006 ft | 553 kts | 110° |
| 2026-04-30 14:31 | 32.47079 | -94.36917 | 37024 ft | 547 kts | 110° |
| 2026-04-30 14:32 | 32.43448 | -94.24216 | 37024 ft | 545 kts | 110° |
| 2026-04-30 14:33 | 32.41018 | -94.15726 | 37024 ft | 544 kts | 110° |
| 2026-04-30 14:33 | 32.37354 | -94.03025 | 37029 ft | 544 kts | 110° |
| 2026-04-30 14:34 | 32.34934 | -93.94616 | 37037 ft | 544 kts | 110° |
| 2026-04-30 14:34 | 32.32500 | -93.86157 | 37046 ft | 543 kts | 110° |
| 2026-04-30 14:35 | 32.28821 | -93.73489 | 37050 ft | 543 kts | 110° |
| 2026-04-30 14:36 | 32.26355 | -93.65054 | 37048 ft | 543 kts | 110° |
| 2026-04-30 14:36 | 32.23902 | -93.56682 | 37048 ft | 543 kts | 110° |
| 2026-04-30 14:37 | 32.21435 | -93.48244 | 37050 ft | 544 kts | 110° |
| 2026-04-30 14:37 | 32.19052 | -93.39763 | 37048 ft | 544 kts | 108° |
| 2026-04-30 14:38 | 32.16820 | -93.31220 | 37048 ft | 545 kts | 108° |
| 2026-04-30 14:38 | 32.14604 | -93.22733 | 37051 ft | 545 kts | 108° |
| 2026-04-30 14:39 | 32.12315 | -93.14211 | 37056 ft | 545 kts | 108° |
| 2026-04-30 14:39 | 32.09993 | -93.05709 | 37054 ft | 544 kts | 108° |
| 2026-04-30 14:40 | 32.06516 | -92.92957 | 37048 ft | 545 kts | 108° |
| 2026-04-30 14:40 | 32.04223 | -92.84515 | 37048 ft | 544 kts | 108° |
| 2026-04-30 14:41 | 32.01917 | -92.76025 | 37042 ft | 544 kts | 108° |
| 2026-04-30 14:41 | 31.99591 | -92.67553 | 37041 ft | 543 kts | 108° |
| 2026-04-30 14:42 | 31.97256 | -92.59095 | 37055 ft | 542 kts | 107° |
| 2026-04-30 14:42 | 31.94948 | -92.50714 | 37051 ft | 541 kts | 107° |
| 2026-04-30 14:43 | 31.92622 | -92.42301 | 37041 ft | 540 kts | 107° |
| 2026-04-30 14:43 | 31.90289 | -92.33906 | 37034 ft | 540 kts | 107° |
| 2026-04-30 14:44 | 31.87971 | -92.25573 | 37030 ft | 539 kts | 107° |
| 2026-04-30 14:44 | 31.85638 | -92.17194 | 37029 ft | 539 kts | 107° |
| 2026-04-30 14:45 | 31.83295 | -92.08821 | 37033 ft | 539 kts | 107° |
| 2026-04-30 14:45 | 31.80944 | -92.00454 | 37033 ft | 539 kts | 107° |
| 2026-04-30 14:46 | 31.78591 | -91.92092 | 37036 ft | 539 kts | 107° |
| 2026-04-30 14:46 | 31.76386 | -91.84263 | 37032 ft | 539 kts | 107° |
| 2026-04-30 14:47 | 31.74028 | -91.75912 | 37028 ft | 539 kts | 108° |
| 2026-04-30 14:47 | 31.71663 | -91.67569 | 37032 ft | 538 kts | 108° |
| 2026-04-30 14:48 | 31.69307 | -91.59282 | 37038 ft | 538 kts | 108° |
| 2026-04-30 14:48 | 31.66931 | -91.50954 | 37037 ft | 538 kts | 108° |
| 2026-04-30 14:49 | 31.64553 | -91.42633 | 37037 ft | 538 kts | 107° |
| 2026-04-30 14:49 | 31.62169 | -91.34318 | 37034 ft | 538 kts | 108° |
| 2026-04-30 14:50 | 31.58597 | -91.21898 | 37024 ft | 537 kts | 108° |
| 2026-04-30 14:51 | 31.55001 | -91.09457 | 37018 ft | 537 kts | 108° |
| 2026-04-30 14:52 | 31.51384 | -90.97025 | 37011 ft | 537 kts | 108° |
| 2026-04-30 14:52 | 31.47787 | -90.84660 | 37014 ft | 537 kts | 108° |
| 2026-04-30 14:53 | 31.44160 | -90.72254 | 37012 ft | 536 kts | 108° |
| 2026-04-30 14:54 | 31.39327 | -90.55785 | 37004 ft | 537 kts | 108° |
| 2026-04-30 14:55 | 31.35665 | -90.43402 | 37007 ft | 537 kts | 108° |
| 2026-04-30 14:56 | 31.30776 | -90.26942 | 37011 ft | 537 kts | 107° |
| 2026-04-30 14:57 | 31.28028 | -90.14269 | 37015 ft | 536 kts | 102° |
| 2026-04-30 14:58 | 31.24540 | -89.97911 | 37022 ft | 536 kts | 102° |
| 2026-04-30 14:58 | 31.21847 | -89.85245 | 37051 ft | 535 kts | 102° |
| 2026-04-30 15:00 | 31.17347 | -89.64247 | 37057 ft | 534 kts | 102° |
| 2026-04-30 15:01 | 31.13730 | -89.47473 | 37052 ft | 532 kts | 102° |
| 2026-04-30 15:01 | 31.11005 | -89.34927 | 37045 ft | 531 kts | 102° |
| 2026-04-30 15:02 | 31.09195 | -89.26643 | 37045 ft | 530 kts | 102° |
| 2026-04-30 15:03 | 31.06459 | -89.14163 | 36409 ft | 528 kts | 102° |
| 2026-04-30 15:03 | 31.04643 | -89.05871 | 35912 ft | 529 kts | 102° |
| 2026-04-30 15:04 | 31.02925 | -88.98048 | 34985 ft | 534 kts | 103° |
| 2026-04-30 15:04 | 31.00072 | -88.85217 | 31470 ft | 547 kts | 103° |
| 2026-04-30 15:05 | 30.97211 | -88.72391 | 27363 ft | 542 kts | 104° |
| 2026-04-30 15:06 | 30.95349 | -88.64057 | 25737 ft | 527 kts | 105° |
| 2026-04-30 15:06 | 30.93516 | -88.55904 | 23999 ft | 519 kts | 105° |
| 2026-04-30 15:07 | 30.91734 | -88.47984 | 22322 ft | 495 kts | 105° |
| 2026-04-30 15:07 | 30.90006 | -88.40311 | 20676 ft | 478 kts | 105° |
| 2026-04-30 15:08 | 30.88336 | -88.32939 | 19230 ft | 467 kts | 105° |
| 2026-04-30 15:08 | 30.85877 | -88.22129 | 17193 ft | 458 kts | 105° |
| 2026-04-30 15:09 | 30.84258 | -88.15034 | 15787 ft | 450 kts | 105° |
| 2026-04-30 15:09 | 30.82695 | -88.08196 | 14440 ft | 419 kts | 105° |
| 2026-04-30 15:10 | 30.81308 | -88.02135 | 14168 ft | 367 kts | 105° |
| 2026-04-30 15:11 | 30.78775 | -87.91108 | 12631 ft | 346 kts | 105° |
| 2026-04-30 15:11 | 30.77542 | -87.85774 | 11408 ft | 337 kts | 105° |
| 2026-04-30 15:12 | 30.76293 | -87.77960 | 10867 ft | 329 kts | 85° |
| 2026-04-30 15:13 | 30.76636 | -87.72685 | 10479 ft | 326 kts | 84° |
| 2026-04-30 15:14 | 30.77269 | -87.62250 | 9714 ft | 318 kts | 84° |
| 2026-04-30 15:14 | 30.77730 | -87.54641 | 9155 ft | 315 kts | 84° |
| 2026-04-30 15:16 | 30.78472 | -87.42031 | 8222 ft | 310 kts | 85° |
| 2026-04-30 15:17 | 30.79020 | -87.32134 | 7455 ft | 305 kts | 89° |
| 2026-04-30 15:18 | 30.71767 | -87.25352 | 6561 ft | 290 kts | 171° |
| 2026-04-30 15:19 | 30.65889 | -87.23781 | 6049 ft | 287 kts | 170° |